createdAt,value
2023-04-11T00:00:17.126Z,95411
2023-04-11T00:01:24.793Z,95407
2023-04-11T00:02:33.628Z,95403
2023-04-11T00:03:43.362Z,95399
2023-04-11T00:04:50.817Z,95400
2023-04-11T00:05:59.572Z,95397
2023-04-11T00:07:09.214Z,95395
2023-04-11T00:08:17.910Z,95389
2023-04-11T00:09:27.591Z,95384
2023-04-11T00:10:36.354Z,95384
2023-04-11T00:11:46.034Z,95380
2023-04-11T00:12:55.710Z,95379
2023-04-11T00:14:03.399Z,95371
2023-04-11T00:15:11.088Z,95370
2023-04-11T00:16:19.776Z,95365
2023-04-11T00:17:29.450Z,95367
2023-04-11T00:18:39.124Z,95365
2023-04-11T00:19:48.784Z,95366
2023-04-11T00:20:57.459Z,95367
2023-04-11T00:22:07.135Z,95367
2023-04-11T00:23:15.765Z,95364
2023-04-11T00:24:25.438Z,95365
2023-04-11T00:25:34.137Z,95362
2023-04-11T00:26:42.806Z,95368
2023-04-11T00:27:52.448Z,95366
2023-04-11T00:29:01.148Z,95368
2023-04-11T00:30:10.799Z,95365
2023-04-11T00:31:20.522Z,95362
2023-04-11T00:32:28.175Z,95362
2023-04-11T00:33:37.452Z,95368
2023-04-11T00:34:46.469Z,95363
2023-04-11T00:35:56.190Z,95359
2023-04-11T00:37:05.832Z,95355
2023-04-11T00:38:13.486Z,95355
2023-04-11T00:39:23.180Z,95355
2023-04-11T00:40:32.841Z,95356
2023-04-11T00:41:40.480Z,95354
2023-04-11T00:42:49.136Z,95349
2023-04-11T00:43:58.846Z,95345
2023-04-11T00:45:07.495Z,95345
2023-04-11T00:46:17.263Z,95337
2023-04-11T00:47:23.838Z,95336
2023-04-11T00:48:32.488Z,95331
2023-04-11T00:49:42.226Z,95331
2023-04-11T00:50:49.877Z,95327
2023-04-11T00:51:58.524Z,95327
2023-04-11T00:53:08.175Z,95323
2023-04-11T00:54:17.888Z,95314
2023-04-11T00:55:27.508Z,95318
2023-04-11T00:56:36.182Z,95312
2023-04-11T00:57:43.808Z,95312
2023-04-11T00:58:53.606Z,95304
2023-04-11T01:00:02.144Z,95309
2023-04-11T01:01:10.793Z,95307
2023-04-11T01:02:19.573Z,95309
2023-04-11T01:03:28.263Z,95303
2023-04-11T01:04:37.808Z,95300
2023-04-11T01:05:45.445Z,95297
2023-04-11T01:06:56.101Z,95302
2023-04-11T01:08:05.790Z,95303
2023-04-11T01:09:14.478Z,95305
2023-04-11T01:10:23.137Z,95302
2023-04-11T01:11:32.779Z,95310
2023-04-11T01:12:42.401Z,95308
2023-04-11T01:13:52.151Z,95315
2023-04-11T01:15:01.894Z,95317
2023-04-11T01:16:11.514Z,95314
2023-04-11T01:17:21.172Z,95315
2023-04-11T01:18:28.858Z,95312
2023-04-11T01:19:37.520Z,95321
2023-04-11T01:20:46.180Z,95318
2023-04-11T01:21:54.810Z,95312
2023-04-11T01:23:04.492Z,95310
2023-04-11T01:24:13.166Z,95317
2023-04-11T01:25:21.826Z,95316
2023-04-11T01:26:31.511Z,95318
2023-04-11T01:27:39.142Z,95318
2023-04-11T01:28:47.807Z,95318
2023-04-11T01:29:56.490Z,95306
2023-04-11T01:31:06.158Z,95306
2023-04-11T01:32:15.799Z,95305
2023-04-11T01:33:23.452Z,95302
2023-04-11T01:34:32.145Z,95303
2023-04-11T01:35:41.837Z,95303
2023-04-11T01:36:50.479Z,95293
2023-04-11T01:38:00.150Z,95295
2023-04-11T01:39:08.860Z,95290
2023-04-11T01:40:18.521Z,95286
2023-04-11T01:41:28.173Z,95286
2023-04-11T01:42:37.911Z,95286
2023-04-11T01:43:46.545Z,95284
2023-04-11T01:44:55.238Z,95287
2023-04-11T01:46:03.885Z,95286
2023-04-11T01:47:13.554Z,95288
2023-04-11T01:48:23.261Z,95290
2023-04-11T01:49:30.917Z,95291
2023-04-11T01:50:39.557Z,95283
2023-04-11T01:51:49.211Z,95285
2023-04-11T01:52:58.865Z,95285
2023-04-11T01:54:07.543Z,95288
2023-04-11T01:55:16.234Z,95296
2023-04-11T01:56:25.884Z,95286
2023-04-11T01:57:35.542Z,95292
2023-04-11T01:58:43.228Z,95294
2023-04-11T01:59:52.917Z,95298
2023-04-11T02:01:02.584Z,95303
2023-04-11T02:02:11.325Z,95313
2023-04-11T02:03:21.038Z,95304
2023-04-11T02:04:29.623Z,95289
2023-04-11T02:05:38.315Z,95281
2023-04-11T02:06:47.966Z,95277
2023-04-11T02:07:56.675Z,95277
2023-04-11T02:09:05.323Z,95274
2023-04-11T02:10:15.001Z,95271
2023-04-11T02:11:23.658Z,95261
2023-04-11T02:12:33.332Z,95257
2023-04-11T02:13:42.000Z,95248
2023-04-11T02:14:50.706Z,95251
2023-04-11T02:16:00.363Z,95249
2023-04-11T02:17:08.999Z,95245
2023-04-11T02:18:16.673Z,95238
2023-04-11T02:19:26.482Z,95243
2023-04-11T02:20:34.057Z,95243
2023-04-11T02:21:42.717Z,95247
2023-04-11T02:22:51.383Z,95246
2023-04-11T02:24:00.791Z,95245
2023-04-11T02:25:09.752Z,95239
2023-04-11T02:26:17.395Z,95235
2023-04-11T02:27:26.056Z,95228
2023-04-11T02:28:35.728Z,95232
2023-04-11T02:29:44.428Z,95228
2023-04-11T02:30:53.249Z,95230
2023-04-11T02:32:02.876Z,95218
2023-04-11T02:33:11.482Z,95214
2023-04-11T02:34:21.187Z,95216
2023-04-11T02:35:30.892Z,95215
2023-04-11T02:36:40.493Z,95211
2023-04-11T02:37:50.160Z,95213
2023-04-11T02:38:59.825Z,95211
2023-04-11T02:40:08.535Z,95209
2023-04-11T02:41:17.210Z,95206
2023-04-11T02:42:25.887Z,95205
2023-04-11T02:43:35.561Z,95202
2023-04-11T02:44:43.226Z,95201
2023-04-11T02:45:56.595Z,95199
2023-04-11T02:47:03.603Z,95197
2023-04-11T02:48:12.183Z,95197
2023-04-11T02:49:23.070Z,95202
2023-04-11T02:50:31.728Z,95194
2023-04-11T02:51:40.383Z,95182
2023-04-11T02:52:50.040Z,95190
2023-04-11T02:53:57.697Z,95187
2023-04-11T02:55:06.379Z,95188
2023-04-11T02:56:16.036Z,95191
2023-04-11T02:57:25.703Z,95196
2023-04-11T02:58:34.387Z,95196
2023-04-11T02:59:43.126Z,95198
2023-04-11T03:00:52.832Z,95196
2023-04-11T03:02:02.595Z,95199
2023-04-11T03:03:11.321Z,95196
2023-04-11T03:04:20.900Z,95192
2023-04-11T03:05:30.519Z,95190
2023-04-11T03:06:39.195Z,95188
2023-04-11T03:07:47.836Z,95190
2023-04-11T03:08:57.705Z,95182
2023-04-11T03:10:07.223Z,95180
2023-04-11T03:11:16.901Z,95176
2023-04-11T03:12:25.581Z,95184
2023-04-11T03:13:34.238Z,95187
2023-04-11T03:14:43.899Z,95179
2023-04-11T03:15:51.584Z,95179
2023-04-11T03:17:00.240Z,95178
2023-04-11T03:18:08.914Z,95180
2023-04-11T03:19:16.658Z,95175
2023-04-11T03:20:26.287Z,95176
2023-04-11T03:21:34.975Z,95183
2023-04-11T03:22:43.638Z,95182
2023-04-11T03:23:53.289Z,95172
2023-04-11T03:25:00.971Z,95169
2023-04-11T03:26:09.649Z,95161
2023-04-11T03:27:19.302Z,95155
2023-04-11T03:28:27.960Z,95155
2023-04-11T03:29:37.613Z,95154
2023-04-11T03:30:45.290Z,95156
2023-04-11T03:31:53.944Z,95151
2023-04-11T03:33:03.642Z,95157
2023-04-11T03:34:11.270Z,95152
2023-04-11T03:35:19.981Z,95148
2023-04-11T03:36:29.631Z,95153
2023-04-11T03:37:38.283Z,95152
2023-04-11T03:38:46.940Z,95151
2023-04-11T03:39:56.605Z,95149
2023-04-11T03:41:06.288Z,95152
2023-04-11T03:42:14.954Z,95151
2023-04-11T03:43:24.629Z,95149
2023-04-11T03:44:33.322Z,95152
2023-04-11T03:45:43.019Z,95147
2023-04-11T03:46:51.706Z,95148
2023-04-11T03:48:00.437Z,95153
2023-04-11T03:49:10.055Z,95148
2023-04-11T03:50:19.702Z,95153
2023-04-11T03:51:28.625Z,95152
2023-04-11T03:52:38.255Z,95157
2023-04-11T03:53:47.933Z,95150
2023-04-11T03:54:57.597Z,95146
2023-04-11T03:56:06.275Z,95146
2023-04-11T03:57:14.926Z,95145
2023-04-11T03:58:24.603Z,95143
2023-04-11T03:59:33.272Z,95145
2023-04-11T04:00:43.947Z,95146
2023-04-11T04:01:52.618Z,95140
2023-04-11T04:03:01.421Z,95134
2023-04-11T04:04:11.015Z,95130
2023-04-11T04:05:18.646Z,95131
2023-04-11T04:06:27.342Z,95127
2023-04-11T04:07:37.027Z,95124
2023-04-11T04:08:45.683Z,95118
2023-04-11T04:09:54.355Z,95124
2023-04-11T04:11:04.124Z,95121
2023-04-11T04:12:13.774Z,95120
2023-04-11T04:13:23.437Z,95119
2023-04-11T04:14:31.092Z,95121
2023-04-11T04:15:39.758Z,95124
2023-04-11T04:16:50.476Z,95118
2023-04-11T04:17:58.123Z,95119
2023-04-11T04:19:06.759Z,95118
2023-04-11T04:20:16.677Z,95118
2023-04-11T04:21:26.407Z,95122
2023-04-11T04:22:36.069Z,95122
2023-04-11T04:23:43.775Z,95120
2023-04-11T04:24:53.354Z,95122
2023-04-11T04:26:03.046Z,95117
2023-04-11T04:27:11.748Z,95121
2023-04-11T04:28:20.401Z,95120
2023-04-11T04:29:30.057Z,95117
2023-04-11T04:30:39.713Z,95120
2023-04-11T04:31:49.432Z,95118
2023-04-11T04:32:58.101Z,95116
2023-04-11T04:34:06.699Z,95124
2023-04-11T04:35:16.403Z,95127
2023-04-11T04:36:24.072Z,95129
2023-04-11T04:37:32.715Z,95130
2023-04-11T04:38:41.385Z,95141
2023-04-11T04:39:50.080Z,95145
2023-04-11T04:40:59.744Z,95151
2023-04-11T04:42:08.451Z,95149
2023-04-11T04:43:17.106Z,95149
2023-04-11T04:44:26.784Z,95164
2023-04-11T04:45:35.454Z,95165
2023-04-11T04:46:45.143Z,95165
2023-04-11T04:47:53.836Z,95192
2023-04-11T04:49:02.626Z,95193
2023-04-11T04:50:12.168Z,95174
2023-04-11T04:51:19.871Z,95171
2023-04-11T04:52:29.517Z,95178
2023-04-11T04:53:39.187Z,95159
2023-04-11T04:54:48.823Z,95160
2023-04-11T04:55:57.515Z,95158
2023-04-11T04:57:07.145Z,95166
2023-04-11T04:58:16.789Z,95170
2023-04-11T04:59:26.451Z,95162
2023-04-11T05:00:35.104Z,95160
2023-04-11T05:01:44.302Z,95155
2023-04-11T05:02:53.864Z,95149
2023-04-11T05:04:02.832Z,95160
2023-04-11T05:05:11.063Z,95165
2023-04-11T05:06:19.976Z,95164
2023-04-11T05:07:29.362Z,95165
2023-04-11T05:08:39.042Z,95166
2023-04-11T05:09:47.704Z,95162
2023-04-11T05:10:56.408Z,95152
2023-04-11T05:12:07.194Z,95171
2023-04-11T05:13:14.812Z,95165
2023-04-11T05:14:23.450Z,95169
2023-04-11T05:15:32.137Z,95168
2023-04-11T05:16:40.856Z,95158
2023-04-11T05:17:50.541Z,95165
2023-04-11T05:18:58.153Z,95193
2023-04-11T05:20:06.805Z,95170
2023-04-11T05:21:16.469Z,95179
2023-04-11T05:22:25.123Z,95186
2023-04-11T05:23:34.782Z,95180
2023-04-11T05:24:43.443Z,95178
2023-04-11T05:25:53.088Z,95168
2023-04-11T05:27:02.862Z,95168
2023-04-11T05:28:11.522Z,95204
2023-04-11T05:29:21.148Z,95174
2023-04-11T05:30:30.827Z,95166
2023-04-11T05:31:39.471Z,95172
2023-04-11T05:32:48.202Z,95173
2023-04-11T05:33:58.197Z,95164
2023-04-11T05:35:07.466Z,95184
2023-04-11T05:36:16.172Z,95165
2023-04-11T05:37:25.807Z,95167
2023-04-11T05:38:34.468Z,95197
2023-04-11T05:39:43.140Z,95164
2023-04-11T05:40:52.801Z,95170
2023-04-11T05:42:02.465Z,95165
2023-04-11T05:43:12.142Z,95183
2023-04-11T05:44:20.825Z,95179
2023-04-11T05:45:30.470Z,95181
2023-04-11T05:46:40.293Z,95208
2023-04-11T05:47:47.849Z,95173
2023-04-11T05:48:56.498Z,95171
2023-04-11T05:50:06.150Z,95180
2023-04-11T05:51:14.820Z,95170
2023-04-11T05:52:24.525Z,95170
2023-04-11T05:53:32.182Z,95174
2023-04-11T05:54:41.829Z,95187
2023-04-11T05:55:51.518Z,95171
2023-04-11T05:56:59.184Z,95175
2023-04-11T05:58:07.892Z,95188
2023-04-11T05:59:17.494Z,95165
2023-04-11T06:00:26.210Z,95164
2023-04-11T06:01:35.868Z,95171
2023-04-11T06:02:43.643Z,95180
2023-04-11T06:03:52.258Z,95179
2023-04-11T06:05:01.884Z,95169
2023-04-11T06:06:10.529Z,95175
2023-04-11T06:07:18.303Z,95163
2023-04-11T06:08:27.955Z,95169
2023-04-11T06:09:36.647Z,95167
2023-04-11T06:10:46.289Z,95193
2023-04-11T06:11:54.952Z,95176
2023-04-11T06:13:04.643Z,95189
2023-04-11T06:14:14.332Z,95197
2023-04-11T06:15:22.984Z,95193
2023-04-11T06:16:31.682Z,95199
2023-04-11T06:17:41.344Z,95184
2023-04-11T06:18:49.976Z,95182
2023-04-11T06:19:59.636Z,95183
2023-04-11T06:21:09.281Z,95201
2023-04-11T06:22:17.941Z,95189
2023-04-11T06:23:27.635Z,95187
2023-04-11T06:24:36.306Z,95175
2023-04-11T06:25:45.958Z,95192
2023-04-11T06:26:54.631Z,95180
2023-04-11T06:28:04.315Z,95191
2023-04-11T06:29:13.965Z,95184
2023-04-11T06:30:22.626Z,95191
2023-04-11T06:31:31.333Z,95197
2023-04-11T06:32:41.050Z,95200
2023-04-11T06:33:49.652Z,95210
2023-04-11T06:34:58.325Z,95206
2023-04-11T06:36:06.992Z,95218
2023-04-11T06:37:15.662Z,95198
2023-04-11T06:38:25.343Z,95224
2023-04-11T06:39:34.023Z,95206
2023-04-11T06:40:42.972Z,95216
2023-04-11T06:41:52.725Z,95212
2023-04-11T06:43:01.447Z,95214
2023-04-11T06:44:10.097Z,95221
2023-04-11T06:45:18.735Z,95223
2023-04-11T06:46:27.388Z,95209
2023-04-11T06:47:37.067Z,95224
2023-04-11T06:48:45.817Z,95209
2023-04-11T06:49:55.386Z,95226
2023-04-11T06:51:05.063Z,95206
2023-04-11T06:52:13.722Z,95205
2023-04-11T06:53:21.413Z,95218
2023-04-11T06:54:31.091Z,95211
2023-04-11T06:55:40.765Z,95204
2023-04-11T06:56:50.414Z,95218
2023-04-11T06:57:59.083Z,95245
2023-04-11T06:59:07.763Z,95222
2023-04-11T07:00:17.417Z,95226
2023-04-11T07:01:25.073Z,95228
2023-04-11T07:02:33.897Z,95238
2023-04-11T07:03:42.552Z,95236
2023-04-11T07:04:51.142Z,95231
2023-04-11T07:06:00.734Z,95234
2023-04-11T07:07:07.378Z,95231
2023-04-11T07:08:16.070Z,95227
2023-04-11T07:09:25.728Z,95227
2023-04-11T07:10:33.399Z,95234
2023-04-11T07:11:43.061Z,95238
2023-04-11T07:12:52.729Z,95238
2023-04-11T07:14:01.407Z,95239
2023-04-11T07:15:11.081Z,95252
2023-04-11T07:16:19.751Z,95244
2023-04-11T07:17:28.448Z,95244
2023-04-11T07:18:38.129Z,95246
2023-04-11T07:19:45.777Z,95256
2023-04-11T07:20:55.466Z,95258
2023-04-11T07:22:05.135Z,95253
2023-04-11T07:23:14.872Z,95265
2023-04-11T07:24:25.521Z,95258
2023-04-11T07:25:34.238Z,95262
2023-04-11T07:26:42.948Z,95269
2023-04-11T07:27:52.639Z,95268
2023-04-11T07:29:01.309Z,95264
2023-04-11T07:30:10.957Z,95259
2023-04-11T07:31:20.624Z,95256
2023-04-11T07:32:30.336Z,95259
2023-04-11T07:33:40.027Z,95261
2023-04-11T07:34:49.718Z,95256
2023-04-11T07:35:56.334Z,95257
2023-04-11T07:37:07.196Z,95262
2023-04-11T07:38:16.805Z,95260
2023-04-11T07:39:25.462Z,95269
2023-04-11T07:40:35.120Z,95261
2023-04-11T07:41:44.832Z,95271
2023-04-11T07:42:54.435Z,95277
2023-04-11T07:44:04.112Z,95279
2023-04-11T07:45:11.767Z,95275
2023-04-11T07:46:20.436Z,95266
2023-04-11T07:47:29.124Z,95270
2023-04-11T07:48:38.767Z,95282
2023-04-11T07:49:48.440Z,95270
2023-04-11T07:50:58.110Z,95276
2023-04-11T07:52:07.759Z,95281
2023-04-11T07:53:17.442Z,95289
2023-04-11T07:54:25.121Z,95298
2023-04-11T07:55:33.773Z,95295
2023-04-11T07:56:42.435Z,95302
2023-04-11T07:57:51.115Z,95307
2023-04-11T07:58:59.816Z,95306
2023-04-11T08:00:08.223Z,95313
2023-04-11T08:01:16.113Z,95308
2023-04-11T08:02:26.917Z,95305
2023-04-11T08:03:35.583Z,95308
2023-04-11T08:04:44.325Z,95303
2023-04-11T08:05:52.760Z,95311
2023-04-11T08:07:02.427Z,95301
2023-04-11T08:08:12.149Z,95304
2023-04-11T08:09:20.780Z,95307
2023-04-11T08:10:29.408Z,95311
2023-04-11T08:11:39.085Z,95318
2023-04-11T08:12:46.739Z,95313
2023-04-11T08:13:55.580Z,95316
2023-04-11T08:15:04.069Z,95319
2023-04-11T08:16:13.754Z,95311
2023-04-11T08:17:27.953Z,95310
2023-04-11T08:18:33.076Z,95328
2023-04-11T08:19:41.732Z,95341
2023-04-11T08:20:51.418Z,95344
2023-04-11T08:21:59.071Z,95326
2023-04-11T08:23:07.740Z,95327
2023-04-11T08:24:16.407Z,95343
2023-04-11T08:25:26.091Z,95345
2023-04-11T08:26:35.714Z,95354
2023-04-11T08:27:44.369Z,95356
2023-04-11T08:28:53.049Z,95346
2023-04-11T08:30:01.695Z,95345
2023-04-11T08:31:09.424Z,95368
2023-04-11T08:32:19.019Z,95363
2023-04-11T08:33:27.742Z,95349
2023-04-11T08:34:37.483Z,95360
2023-04-11T08:35:46.254Z,95361
2023-04-11T08:36:54.788Z,95357
2023-04-11T08:38:04.445Z,95360
2023-04-11T08:39:13.135Z,95363
2023-04-11T08:40:21.807Z,95355
2023-04-11T08:41:31.515Z,95352
2023-04-11T08:42:40.152Z,95348
2023-04-11T08:43:49.846Z,95352
2023-04-11T08:44:58.490Z,95341
2023-04-11T08:46:08.316Z,95350
2023-04-11T08:47:17.837Z,95349
2023-04-11T08:48:26.505Z,95352
2023-04-11T08:49:35.233Z,95360
2023-04-11T08:50:43.895Z,95362
2023-04-11T08:51:52.536Z,95364
2023-04-11T08:53:01.240Z,95367
2023-04-11T08:54:10.053Z,95368
2023-04-11T08:55:18.719Z,95361
2023-04-11T08:56:28.378Z,95355
2023-04-11T08:57:37.041Z,95347
2023-04-11T08:58:46.729Z,95352
2023-04-11T08:59:55.390Z,95348
2023-04-11T09:01:05.054Z,95360
2023-04-11T09:02:14.818Z,95363
2023-04-11T09:03:24.444Z,95355
2023-04-11T09:04:33.071Z,95357
2023-04-11T09:05:42.728Z,95364
2023-04-11T09:06:50.399Z,95352
2023-04-11T09:08:00.078Z,95358
2023-04-11T09:09:08.816Z,95371
2023-04-11T09:10:18.477Z,95370
2023-04-11T09:11:28.147Z,95373
2023-04-11T09:12:35.824Z,95370
2023-04-11T09:13:45.536Z,95383
2023-04-11T09:14:55.183Z,95383
2023-04-11T09:16:02.856Z,95389
2023-04-11T09:17:11.498Z,95393
2023-04-11T09:18:21.153Z,95378
2023-04-11T09:19:29.855Z,95389
2023-04-11T09:20:39.488Z,95389
2023-04-11T09:21:49.265Z,95390
2023-04-11T09:22:57.904Z,95387
2023-04-11T09:24:07.604Z,95400
2023-04-11T09:25:16.279Z,95398
2023-04-11T09:26:24.920Z,95396
2023-04-11T09:27:33.595Z,95394
2023-04-11T09:28:43.249Z,95391
2023-04-11T09:29:52.926Z,95397
2023-04-11T09:31:01.601Z,95402
2023-04-11T09:32:09.247Z,95395
2023-04-11T09:33:17.915Z,95389
2023-04-11T09:34:27.604Z,95391
2023-04-11T09:35:36.278Z,95393
2023-04-11T09:36:45.942Z,95391
2023-04-11T09:37:53.586Z,95392
2023-04-11T09:39:03.275Z,95403
2023-04-11T09:40:12.962Z,95398
2023-04-11T09:41:20.665Z,95408
2023-04-11T09:42:30.387Z,95412
2023-04-11T09:43:39.069Z,95412
2023-04-11T09:44:48.760Z,95418
2023-04-11T09:45:58.445Z,95413
2023-04-11T09:47:08.090Z,95409
2023-04-11T09:48:17.767Z,95420
2023-04-11T09:49:28.434Z,95427
2023-04-11T09:50:37.089Z,95419
2023-04-11T09:51:45.808Z,95425
2023-04-11T09:52:57.751Z,95430
2023-04-11T09:54:04.859Z,95432
2023-04-11T09:55:12.793Z,95427
2023-04-11T09:56:21.430Z,95427
2023-04-11T09:57:29.072Z,95431
2023-04-11T09:58:38.749Z,95430
2023-04-11T09:59:47.444Z,95419
2023-04-11T10:00:56.098Z,95430
2023-04-11T10:02:04.866Z,95427
2023-04-11T10:03:14.527Z,95426
2023-04-11T10:04:24.207Z,95424
2023-04-11T10:05:31.879Z,95428
2023-04-11T10:06:40.516Z,95421
2023-04-11T10:07:50.175Z,95426
2023-04-11T10:08:58.034Z,95433
2023-04-11T10:10:07.528Z,95429
2023-04-11T10:11:17.187Z,95437
2023-04-11T10:12:26.857Z,95438
2023-04-11T10:13:36.521Z,95434
2023-04-11T10:14:45.219Z,95434
2023-04-11T10:15:53.889Z,95431
2023-04-11T10:17:03.608Z,95432
2023-04-11T10:18:12.496Z,95435
2023-04-11T10:19:20.960Z,95447
2023-04-11T10:20:29.618Z,95437
2023-04-11T10:21:38.291Z,95431
2023-04-11T10:22:47.926Z,95432
2023-04-11T10:23:57.722Z,95435
2023-04-11T10:25:06.283Z,95434
2023-04-11T10:26:15.938Z,95437
2023-04-11T10:27:23.591Z,95437
2023-04-11T10:28:32.290Z,95429
2023-04-11T10:29:41.974Z,95438
2023-04-11T10:30:50.612Z,95429
2023-04-11T10:32:00.375Z,95435
2023-04-11T10:33:08.984Z,95431
2023-04-11T10:34:18.720Z,95433
2023-04-11T10:35:28.362Z,95438
2023-04-11T10:36:37.037Z,95439
2023-04-11T10:37:46.717Z,95441
2023-04-11T10:38:55.384Z,95437
2023-04-11T10:40:04.099Z,95441
2023-04-11T10:41:13.765Z,95428
2023-04-11T10:42:22.427Z,95440
2023-04-11T10:43:32.108Z,95436
2023-04-11T10:44:42.794Z,95443
2023-04-11T10:45:51.462Z,95442
2023-04-11T10:47:00.197Z,95453
2023-04-11T10:48:09.807Z,95439
2023-04-11T10:49:19.485Z,95448
2023-04-11T10:50:29.165Z,95445
2023-04-11T10:51:37.799Z,95442
2023-04-11T10:52:46.452Z,95444
2023-04-11T10:53:56.129Z,95447
2023-04-11T10:55:05.808Z,95452
2023-04-11T10:56:16.126Z,95451
2023-04-11T10:57:24.166Z,95457
2023-04-11T10:58:32.807Z,95458
2023-04-11T10:59:41.487Z,95456
2023-04-11T11:00:50.197Z,95466
2023-04-11T11:01:58.896Z,95465
2023-04-11T11:03:08.581Z,95460
2023-04-11T11:04:18.563Z,95464
2023-04-11T11:05:26.869Z,95468
2023-04-11T11:06:43.164Z,95463
2023-04-11T11:07:45.157Z,95469
2023-04-11T11:08:54.826Z,95464
2023-04-11T11:10:03.519Z,95470
2023-04-11T11:11:13.209Z,95463
2023-04-11T11:12:22.874Z,95464
2023-04-11T11:13:30.526Z,95453
2023-04-11T11:14:40.233Z,95448
2023-04-11T11:15:49.910Z,95450
2023-04-11T11:16:58.716Z,95450
2023-04-11T11:18:08.288Z,95457
2023-04-11T11:19:15.919Z,95462
2023-04-11T11:20:24.624Z,95470
2023-04-11T11:21:34.357Z,95464
2023-04-11T11:22:42.054Z,95470
2023-04-11T11:23:50.689Z,95456
2023-04-11T11:24:59.402Z,95467
2023-04-11T11:26:09.122Z,95467
2023-04-11T11:27:18.735Z,95476
2023-04-11T11:28:26.458Z,95479
2023-04-11T11:29:34.124Z,95470
2023-04-11T11:30:42.798Z,95471
2023-04-11T11:31:51.499Z,95471
2023-04-11T11:33:01.186Z,95461
2023-04-11T11:34:22.609Z,95473
2023-04-11T11:35:21.535Z,95479
2023-04-11T11:36:30.235Z,95477
2023-04-11T11:37:39.906Z,95467
2023-04-11T11:38:48.608Z,95476
2023-04-11T11:39:57.299Z,95464
2023-04-11T11:41:05.993Z,95482
2023-04-11T11:42:15.681Z,95475
2023-04-11T11:43:25.335Z,95475
2023-04-11T11:44:33.027Z,95472
2023-04-11T11:45:41.771Z,95479
2023-04-11T11:46:51.426Z,95478
2023-04-11T11:48:01.096Z,95486
2023-04-11T11:49:09.776Z,95495
2023-04-11T11:50:18.462Z,95493
2023-04-11T11:51:28.141Z,95491
2023-04-11T11:52:37.844Z,95486
2023-04-11T11:53:46.484Z,95482
2023-04-11T11:54:56.191Z,95479
2023-04-11T11:56:05.834Z,95470
2023-04-11T11:57:14.484Z,95476
2023-04-11T11:58:23.144Z,95479
2023-04-11T11:59:33.842Z,95490
2023-04-11T12:00:42.546Z,95497
2023-04-11T12:01:52.269Z,95488
2023-04-11T12:03:01.038Z,95487
2023-04-11T12:04:09.768Z,95488
2023-04-11T12:05:19.416Z,95491
2023-04-11T12:06:27.081Z,95497
2023-04-11T12:07:34.743Z,95500
2023-04-11T12:08:43.489Z,95492
2023-04-11T12:09:52.102Z,95493
2023-04-11T12:11:01.941Z,95506
2023-04-11T12:12:11.492Z,95498
2023-04-11T12:13:20.148Z,95487
2023-04-11T12:14:29.824Z,95488
2023-04-11T12:15:38.533Z,95490
2023-04-11T12:16:47.188Z,95493
2023-04-11T12:17:55.879Z,95482
2023-04-11T12:19:05.576Z,95497
2023-04-11T12:20:15.273Z,95471
2023-04-11T12:21:23.905Z,95470
2023-04-11T12:22:33.554Z,95457
2023-04-11T12:23:43.274Z,95457
2023-04-11T12:24:52.973Z,95462
2023-04-11T12:26:02.698Z,95463
2023-04-11T12:27:12.524Z,95484
2023-04-11T12:28:21.032Z,95483
2023-04-11T12:29:30.681Z,95491
2023-04-11T12:30:38.355Z,95493
2023-04-11T12:31:47.049Z,95487
2023-04-11T12:32:56.691Z,95476
2023-04-11T12:34:04.342Z,95473
2023-04-11T12:35:13.033Z,95479
2023-04-11T12:36:22.668Z,95467
2023-04-11T12:37:32.349Z,95474
2023-04-11T12:38:42.061Z,95465
2023-04-11T12:39:49.702Z,95453
2023-04-11T12:41:14.201Z,95465
2023-04-11T12:42:11.264Z,95464
2023-04-11T12:43:21.153Z,95487
2023-04-11T12:44:29.687Z,95477
2023-04-11T12:45:38.364Z,95465
2023-04-11T12:46:47.052Z,95483
2023-04-11T12:47:57.090Z,95474
2023-04-11T12:49:05.740Z,95470
2023-04-11T12:50:14.409Z,95480
2023-04-11T12:51:24.088Z,95484
2023-04-11T12:52:31.748Z,95479
2023-04-11T12:53:40.405Z,95471
2023-04-11T12:54:49.117Z,95465
2023-04-11T12:55:58.830Z,95464
2023-04-11T12:57:08.488Z,95477
2023-04-11T12:58:17.169Z,95478
2023-04-11T12:59:26.859Z,95469
2023-04-11T13:00:36.520Z,95472
2023-04-11T13:01:44.153Z,95487
2023-04-11T13:02:52.865Z,95490
2023-04-11T13:04:02.714Z,95475
2023-04-11T13:05:11.259Z,95475
2023-04-11T13:06:20.859Z,95475
2023-04-11T13:07:29.516Z,95485
2023-04-11T13:08:39.180Z,95469
2023-04-11T13:09:48.875Z,95482
2023-04-11T13:10:57.595Z,95471
2023-04-11T13:12:06.199Z,95467
2023-04-11T13:13:18.218Z,95485
2023-04-11T13:14:24.514Z,95482
2023-04-11T13:15:34.220Z,95470
2023-04-11T13:16:42.899Z,95469
2023-04-11T13:17:52.626Z,95465
2023-04-11T13:19:02.271Z,95471
2023-04-11T13:20:11.123Z,95463
2023-04-11T13:21:20.601Z,95462
2023-04-11T13:22:30.271Z,95472
2023-04-11T13:23:38.926Z,95469
2023-04-11T13:24:46.597Z,95465
2023-04-11T13:25:56.275Z,95465
2023-04-11T13:27:05.944Z,95456
2023-04-11T13:28:13.605Z,95460
2023-04-11T13:29:24.255Z,95458
2023-04-11T13:30:32.913Z,95456
2023-04-11T13:31:42.619Z,95455
2023-04-11T13:32:52.318Z,95457
2023-04-11T13:34:00.925Z,95445
2023-04-11T13:35:09.592Z,95457
2023-04-11T13:36:19.334Z,95460
2023-04-11T13:37:26.979Z,95459
2023-04-11T13:38:35.641Z,95460
2023-04-11T13:39:44.299Z,95460
2023-04-11T13:40:52.962Z,95455
2023-04-11T13:42:02.715Z,95455
2023-04-11T13:43:10.350Z,95458
2023-04-11T13:44:19.021Z,95448
2023-04-11T13:45:28.701Z,95445
2023-04-11T13:46:37.409Z,95441
2023-04-11T13:47:47.149Z,95449
2023-04-11T13:48:57.056Z,95445
2023-04-11T13:50:06.486Z,95435
2023-04-11T13:51:16.151Z,95439
2023-04-11T13:52:24.857Z,95439
2023-04-11T13:53:34.525Z,95437
2023-04-11T13:54:44.199Z,95436
2023-04-11T13:55:52.873Z,95436
2023-04-11T13:57:01.557Z,95444
2023-04-11T13:58:10.212Z,95426
2023-04-11T13:59:19.837Z,95446
2023-04-11T14:00:29.514Z,95433
2023-04-11T14:01:39.305Z,95431
2023-04-11T14:02:48.721Z,95428
2023-04-11T14:03:57.878Z,95430
2023-04-11T14:05:06.197Z,95425
2023-04-11T14:06:15.895Z,95430
2023-04-11T14:07:25.613Z,95422
2023-04-11T14:08:35.278Z,95438
2023-04-11T14:09:44.956Z,95424
2023-04-11T14:10:55.667Z,95430
2023-04-11T14:12:04.385Z,95429
2023-04-11T14:13:14.075Z,95432
2023-04-11T14:14:22.725Z,95418
2023-04-11T14:15:31.400Z,95422
2023-04-11T14:16:41.193Z,95420
2023-04-11T14:17:50.898Z,95412
2023-04-11T14:19:00.587Z,95429
2023-04-11T14:20:10.251Z,95412
2023-04-11T14:21:18.917Z,95442
2023-04-11T14:22:27.614Z,95427
2023-04-11T14:23:37.274Z,95425
2023-04-11T14:24:45.955Z,95431
2023-04-11T14:25:55.645Z,95426
2023-04-11T14:27:04.370Z,95427
2023-04-11T14:28:13.004Z,95435
2023-04-11T14:29:23.069Z,95426
2023-04-11T14:30:31.415Z,95427
2023-04-11T14:31:40.174Z,95434
2023-04-11T14:32:48.840Z,95436
2023-04-11T14:33:58.537Z,95435
2023-04-11T14:35:08.208Z,95430
2023-04-11T14:36:16.776Z,95437
2023-04-11T14:37:25.467Z,95432
2023-04-11T14:38:35.166Z,95433
2023-04-11T14:39:44.849Z,95437
2023-04-11T14:40:53.513Z,95436
2023-04-11T14:42:02.289Z,95437
2023-04-11T14:43:10.936Z,95429
2023-04-11T14:44:20.605Z,95438
2023-04-11T14:45:31.274Z,95442
2023-04-11T14:46:39.968Z,95425
2023-04-11T14:47:49.653Z,95427
2023-04-11T14:48:58.292Z,95427